createdAt,value
2019-04-04T00:01:29.285Z,93.20
2019-04-04T00:02:34.577Z,93.10
2019-04-04T00:03:40.072Z,92.90
2019-04-04T00:04:45.261Z,92.80
2019-04-04T00:05:50.280Z,92.80
2019-04-04T00:06:57.704Z,92.70
2019-04-04T00:08:02.056Z,92.80
2019-04-04T00:09:10.549Z,92.80
2019-04-04T00:10:15.760Z,92.90
2019-04-04T00:11:20.828Z,93.20
2019-04-04T00:12:25.919Z,93.10
2019-04-04T00:13:31.067Z,93.10
2019-04-04T00:14:37.569Z,93.20
2019-04-04T00:15:45.373Z,93.00
2019-04-04T00:16:49.435Z,93.20
2019-04-04T00:17:54.597Z,93.30
2019-04-04T00:18:59.792Z,93.40
2019-04-04T00:20:05.274Z,93.40
2019-04-04T00:21:10.346Z,93.60
2019-04-04T00:22:15.396Z,93.50
2019-04-04T00:23:20.497Z,93.40
2019-04-04T00:24:25.717Z,93.20
2019-04-04T00:25:30.853Z,93.10
2019-04-04T00:26:35.953Z,93.00
2019-04-04T00:27:43.680Z,93.00
2019-04-04T00:28:47.792Z,93.00
2019-04-04T00:29:53.971Z,93.20
2019-04-04T00:30:59.113Z,93.10
2019-04-04T00:32:04.226Z,92.90
2019-04-04T00:33:09.336Z,92.90
2019-04-04T00:34:14.545Z,92.90
2019-04-04T00:35:19.530Z,92.90
2019-04-04T00:36:24.531Z,92.90
2019-04-04T00:37:29.522Z,92.80
2019-04-04T00:38:37.705Z,92.90
2019-04-04T00:39:41.304Z,93.00
2019-04-04T00:40:46.260Z,93.10
2019-04-04T00:41:51.253Z,93.20
2019-04-04T00:42:57.696Z,93.30
2019-04-04T00:44:02.703Z,93.50
2019-04-04T00:45:07.718Z,93.60
2019-04-04T00:46:12.841Z,93.70
2019-04-04T00:47:17.936Z,93.70
2019-04-04T00:48:22.982Z,93.70
2019-04-04T00:49:27.969Z,93.70
2019-04-04T00:50:33.034Z,93.80
2019-04-04T00:51:39.150Z,93.80
2019-04-04T00:52:44.694Z,93.80
2019-04-04T00:53:49.725Z,93.80
2019-04-04T00:54:55.085Z,93.90
2019-04-04T00:56:00.088Z,93.80
2019-04-04T00:57:05.048Z,93.90
2019-04-04T00:58:10.084Z,93.90
2019-04-04T00:59:15.091Z,93.90
2019-04-04T01:00:20.073Z,93.90
2019-04-04T01:01:26.959Z,94.10
2019-04-04T01:02:31.780Z,94.10
2019-04-04T01:03:36.824Z,94.10
2019-04-04T01:04:41.803Z,94.20
2019-04-04T01:05:46.832Z,94.30
2019-04-04T01:06:51.864Z,94.40
2019-04-04T01:07:56.857Z,94.50
2019-04-04T01:09:01.884Z,94.50
2019-04-04T01:10:10.108Z,94.60
2019-04-04T01:11:15.277Z,94.60
2019-04-04T01:12:21.625Z,94.60
2019-04-04T01:13:27.722Z,94.60
2019-04-04T01:14:32.845Z,94.60
2019-04-04T01:15:37.918Z,94.60
2019-04-04T01:16:42.970Z,94.60
2019-04-04T01:17:47.999Z,94.60
2019-04-04T01:18:53.019Z,94.70
2019-04-04T01:19:58.111Z,94.70
2019-04-04T01:21:03.561Z,94.60
2019-04-04T01:22:08.757Z,94.70
2019-04-04T01:23:13.892Z,95.00
2019-04-04T01:24:18.918Z,94.90
2019-04-04T01:25:24.001Z,94.90
2019-04-04T01:26:29.089Z,94.90
2019-04-04T01:27:35.031Z,94.90
2019-04-04T01:28:40.892Z,94.90
2019-04-04T01:29:45.965Z,94.90
2019-04-04T01:30:50.993Z,94.80
2019-04-04T01:31:56.088Z,94.90
2019-04-04T01:33:03.541Z,94.90
2019-04-04T01:34:07.984Z,94.90
2019-04-04T01:35:12.946Z,94.90
2019-04-04T01:36:17.935Z,94.90
2019-04-04T01:37:22.967Z,94.90
2019-04-04T01:38:29.076Z,94.90
2019-04-04T01:39:34.675Z,94.90
2019-04-04T01:40:39.636Z,94.90
2019-04-04T01:41:44.638Z,94.90
2019-04-04T01:42:49.700Z,95.00
2019-04-04T01:44:04.610Z,95.00
2019-04-04T01:45:01.460Z,95.00
2019-04-04T01:46:07.620Z,95.00
2019-04-04T01:47:12.721Z,94.90
2019-04-04T01:48:18.887Z,95.00
2019-04-04T01:49:24.324Z,94.90
2019-04-04T01:50:29.668Z,94.90
2019-04-04T01:51:34.709Z,94.90
2019-04-04T01:52:39.816Z,94.90
2019-04-04T01:53:44.837Z,94.90
2019-04-04T01:54:50.070Z,95.10
2019-04-04T01:55:55.469Z,95.00
2019-04-04T01:57:00.623Z,95.00
2019-04-04T01:58:05.710Z,95.00
2019-04-04T01:59:12.298Z,95.00
2019-04-04T02:00:17.880Z,95.00
2019-04-04T02:01:23.119Z,94.90
2019-04-04T02:02:29.361Z,94.90
2019-04-04T02:03:34.769Z,94.90
2019-04-04T02:04:39.874Z,94.90
2019-04-04T02:05:44.880Z,94.90
2019-04-04T02:06:50.033Z,94.80
2019-04-04T02:07:55.161Z,94.80
2019-04-04T02:09:02.469Z,94.90
2019-04-04T02:10:08.453Z,94.80
2019-04-04T02:11:13.456Z,94.80
2019-04-04T02:12:18.577Z,94.70
2019-04-04T02:13:23.592Z,94.80
2019-04-04T02:14:28.661Z,94.90
2019-04-04T02:15:33.664Z,94.90
2019-04-04T02:16:38.665Z,95.00
2019-04-04T02:17:43.676Z,95.10
2019-04-04T02:18:48.811Z,95.10
2019-04-04T02:19:56.312Z,95.20
2019-04-04T02:21:01.685Z,95.40
2019-04-04T02:22:06.808Z,95.40
2019-04-04T02:23:12.003Z,95.20
2019-04-04T02:24:17.084Z,95.20
2019-04-04T02:25:22.094Z,95.20
2019-04-04T02:26:27.118Z,95.30
2019-04-04T02:27:32.280Z,95.00
2019-04-04T02:28:37.979Z,95.00
2019-04-04T02:29:44.006Z,95.10
2019-04-04T02:30:49.351Z,95.10
2019-04-04T02:31:57.420Z,95.10
2019-04-04T02:33:02.536Z,95.10
2019-04-04T02:34:08.746Z,95.00
2019-04-04T02:35:13.932Z,95.00
2019-04-04T02:36:18.995Z,95.00
2019-04-04T02:37:23.997Z,95.00
2019-04-04T02:38:29.122Z,95.00
2019-04-04T02:39:35.255Z,95.00
2019-04-04T02:40:42.098Z,95.00
2019-04-04T02:41:48.450Z,95.20
2019-04-04T02:42:55.396Z,95.10
2019-04-04T02:44:00.816Z,95.10
2019-04-04T02:45:06.703Z,95.10
2019-04-04T02:46:12.421Z,95.20
2019-04-04T02:47:18.326Z,95.20
2019-04-04T02:48:24.709Z,95.10
2019-04-04T02:49:30.061Z,95.00
2019-04-04T02:50:35.884Z,94.80
2019-04-04T02:51:41.542Z,94.80
2019-04-04T02:52:47.194Z,94.90
2019-04-04T02:53:53.190Z,95.00
2019-04-04T02:54:58.655Z,95.10
2019-04-04T02:56:03.939Z,95.10
2019-04-04T02:57:09.632Z,95.10
2019-04-04T02:58:15.420Z,95.10
2019-04-04T02:59:23.448Z,95.10
2019-04-04T03:00:28.549Z,95.10
2019-04-04T03:01:33.643Z,95.10
2019-04-04T03:02:39.091Z,95.00
2019-04-04T03:03:44.322Z,94.90
2019-04-04T03:04:49.411Z,94.80
2019-04-04T03:05:54.437Z,94.70
2019-04-04T03:06:59.537Z,94.70
2019-04-04T03:08:04.823Z,94.70
2019-04-04T03:09:10.589Z,94.90
2019-04-04T03:10:16.815Z,94.90
2019-04-04T03:11:22.911Z,95.00
2019-04-04T03:12:28.253Z,95.00
2019-04-04T03:13:33.383Z,95.00
2019-04-04T03:14:38.425Z,95.10
2019-04-04T03:15:47.221Z,95.10
2019-04-04T03:16:50.578Z,95.10
2019-04-04T03:17:55.826Z,95.10
2019-04-04T03:19:00.901Z,95.10
2019-04-04T03:20:06.332Z,95.20
2019-04-04T03:21:11.420Z,95.20
2019-04-04T03:22:16.450Z,95.00
2019-04-04T03:23:21.520Z,95.20
2019-04-04T03:24:26.649Z,95.30
2019-04-04T03:25:31.680Z,95.40
2019-04-04T03:26:36.836Z,95.30
2019-04-04T03:27:41.969Z,95.40
2019-04-04T03:28:47.080Z,95.50
2019-04-04T03:29:52.116Z,95.60
2019-04-04T03:31:02.317Z,95.70
2019-04-04T03:32:03.951Z,95.60
2019-04-04T03:33:08.934Z,95.50
2019-04-04T03:34:14.146Z,95.40
2019-04-04T03:35:26.016Z,95.30
2019-04-04T03:36:25.968Z,95.20
2019-04-04T03:37:31.051Z,95.10
2019-04-04T03:38:36.079Z,95.10
2019-04-04T03:39:41.208Z,95.10
2019-04-04T03:40:46.335Z,95.10
2019-04-04T03:41:51.484Z,95.00
2019-04-04T03:42:56.522Z,95.00
2019-04-04T03:44:01.595Z,94.90
2019-04-04T03:45:06.789Z,94.90
2019-04-04T03:46:11.851Z,94.90
2019-04-04T03:47:17.290Z,94.90
2019-04-04T03:48:22.475Z,94.70
2019-04-04T03:49:27.580Z,94.70
2019-04-04T03:50:32.686Z,94.70
2019-04-04T03:51:38.273Z,94.80
2019-04-04T03:52:44.635Z,94.80
2019-04-04T03:53:55.648Z,94.90
2019-04-04T03:55:00.818Z,94.90
2019-04-04T03:56:05.938Z,94.90
2019-04-04T03:57:12.371Z,94.90
2019-04-04T03:58:17.530Z,95.00
2019-04-04T03:59:22.596Z,95.00
2019-04-04T04:00:29.530Z,94.90
2019-04-04T04:01:34.557Z,94.80
2019-04-04T04:02:39.652Z,94.90
2019-04-04T04:03:44.715Z,94.80
2019-04-04T04:04:49.804Z,94.70
2019-04-04T04:05:54.870Z,94.70
2019-04-04T04:06:59.955Z,94.80
2019-04-04T04:08:05.062Z,94.40
2019-04-04T04:09:10.246Z,94.70
2019-04-04T04:10:15.356Z,94.80
2019-04-04T04:11:20.586Z,94.90
2019-04-04T04:12:25.605Z,95.00
2019-04-04T04:13:30.615Z,95.10
2019-04-04T04:14:35.698Z,95.10
2019-04-04T04:15:41.120Z,95.30
2019-04-04T04:16:46.389Z,95.40
2019-04-04T04:17:51.440Z,95.60
2019-04-04T04:18:56.541Z,95.60
2019-04-04T04:20:04.066Z,95.50
2019-04-04T04:21:10.887Z,95.50
2019-04-04T04:22:18.235Z,95.50
2019-04-04T04:23:23.906Z,95.50
2019-04-04T04:24:30.320Z,95.60
2019-04-04T04:25:36.777Z,95.70
2019-04-04T04:26:42.331Z,95.90
2019-04-04T04:27:49.223Z,96.00
2019-04-04T04:28:54.406Z,95.90
2019-04-04T04:30:07.147Z,96.00
2019-04-04T04:31:14.244Z,96.10
2019-04-04T04:32:21.244Z,96.10
2019-04-04T04:33:24.150Z,96.40
2019-04-04T04:34:32.892Z,96.50
2019-04-04T04:35:40.819Z,96.60
2019-04-04T04:36:43.089Z,96.50
2019-04-04T04:37:52.317Z,96.60
2019-04-04T04:38:58.955Z,96.70
2019-04-04T04:40:02.017Z,96.60
2019-04-04T04:41:07.281Z,96.50
2019-04-04T04:42:12.387Z,96.40
2019-04-04T04:43:17.502Z,96.40
2019-04-04T04:44:22.679Z,96.20
2019-04-04T04:45:27.815Z,96.20
2019-04-04T04:46:33.065Z,96.20
2019-04-04T04:47:38.103Z,96.10
2019-04-04T04:48:43.150Z,95.90
2019-04-04T04:49:48.192Z,95.80
2019-04-04T04:50:53.222Z,95.50
2019-04-04T04:51:58.353Z,95.50
2019-04-04T04:53:03.398Z,95.60
2019-04-04T04:54:08.456Z,95.60
2019-04-04T04:55:13.524Z,95.60
2019-04-04T04:56:18.625Z,95.40
2019-04-04T04:57:29.941Z,95.50
2019-04-04T04:58:30.436Z,95.50
2019-04-04T04:59:35.540Z,95.60
2019-04-04T05:00:41.734Z,95.60
2019-04-04T05:01:50.069Z,95.40
2019-04-04T05:02:53.817Z,95.40
2019-04-04T05:03:59.010Z,95.40
2019-04-04T05:05:04.302Z,95.40
2019-04-04T05:06:09.396Z,95.30
2019-04-04T05:07:14.811Z,95.20
2019-04-04T05:08:20.300Z,95.20
2019-04-04T05:09:25.370Z,95.30
2019-04-04T05:10:30.394Z,95.20
2019-04-04T05:11:35.569Z,95.30
2019-04-04T05:12:40.693Z,95.20
2019-04-04T05:13:45.810Z,95.20
2019-04-04T05:14:50.938Z,95.20
2019-04-04T05:15:56.130Z,95.10
2019-04-04T05:17:02.304Z,95.00
2019-04-04T05:18:07.507Z,94.80
2019-04-04T05:19:12.638Z,94.70
2019-04-04T05:20:17.896Z,94.70
2019-04-04T05:21:25.579Z,94.80
2019-04-04T05:22:30.058Z,94.90
2019-04-04T05:23:35.067Z,94.80
2019-04-04T05:24:40.279Z,94.90
2019-04-04T05:25:53.667Z,94.90
2019-04-04T05:26:52.141Z,94.90
2019-04-04T05:27:57.306Z,94.60
2019-04-04T05:29:02.481Z,94.60
2019-04-04T05:30:08.528Z,94.70
2019-04-04T05:31:13.920Z,94.70
2019-04-04T05:32:21.013Z,94.60
2019-04-04T05:33:29.120Z,94.50
2019-04-04T05:34:34.761Z,94.30
2019-04-04T05:35:39.933Z,94.20
2019-04-04T05:36:44.962Z,94.30
2019-04-04T05:37:50.179Z,94.20
2019-04-04T05:38:55.676Z,94.20
2019-04-04T05:40:00.928Z,94.20
2019-04-04T05:41:06.197Z,94.00
2019-04-04T05:42:12.516Z,94.00
2019-04-04T05:43:17.560Z,94.10
2019-04-04T05:44:22.691Z,94.00
2019-04-04T05:45:27.818Z,94.00
2019-04-04T05:46:33.010Z,94.10
2019-04-04T05:47:38.251Z,94.00
2019-04-04T05:48:43.304Z,94.20
2019-04-04T05:49:48.333Z,94.20
2019-04-04T05:50:53.452Z,94.30
2019-04-04T05:51:58.670Z,94.20
2019-04-04T05:53:04.202Z,94.00
2019-04-04T05:54:10.044Z,94.10
2019-04-04T05:55:15.104Z,94.10
2019-04-04T05:56:20.386Z,94.10
2019-04-04T05:57:28.587Z,94.20
2019-04-04T05:58:33.764Z,94.20
2019-04-04T05:59:38.966Z,94.20
2019-04-04T06:00:46.141Z,94.30
2019-04-04T06:01:51.266Z,94.10
2019-04-04T06:02:56.479Z,94.30
2019-04-04T06:04:03.900Z,94.20
2019-04-04T06:05:08.640Z,94.30
2019-04-04T06:06:13.812Z,94.40
2019-04-04T06:07:18.908Z,94.30
2019-04-04T06:08:24.980Z,94.30
2019-04-04T06:09:30.081Z,94.40
2019-04-04T06:10:35.240Z,94.40
2019-04-04T06:11:40.261Z,94.40
2019-04-04T06:12:45.283Z,94.30
2019-04-04T06:13:50.380Z,94.40
2019-04-04T06:14:55.582Z,94.40
2019-04-04T06:16:02.153Z,94.40
2019-04-04T06:17:07.907Z,94.50
2019-04-04T06:18:13.167Z,94.40
2019-04-04T06:19:18.262Z,94.30
2019-04-04T06:20:23.405Z,94.20
2019-04-04T06:21:28.574Z,94.20
2019-04-04T06:22:33.625Z,94.20
2019-04-04T06:23:38.738Z,94.10
2019-04-04T06:24:44.129Z,94.10
2019-04-04T06:25:49.282Z,94.00
2019-04-04T06:26:54.327Z,94.00
2019-04-04T06:27:59.671Z,93.80
2019-04-04T06:29:05.830Z,93.90
2019-04-04T06:30:11.090Z,93.90
2019-04-04T06:31:16.122Z,93.90
2019-04-04T06:32:21.311Z,94.00
2019-04-04T06:33:26.833Z,94.00
2019-04-04T06:34:32.086Z,94.00
2019-04-04T06:35:39.695Z,94.00
2019-04-04T06:36:44.053Z,94.00
2019-04-04T06:37:51.429Z,94.00
2019-04-04T06:38:55.965Z,94.10
2019-04-04T06:40:01.121Z,94.10
2019-04-04T06:41:07.301Z,94.10
2019-04-04T06:42:12.418Z,94.10
2019-04-04T06:43:17.843Z,94.10
2019-04-04T06:44:23.032Z,94.00
2019-04-04T06:45:29.681Z,93.90
2019-04-04T06:46:35.058Z,93.80
2019-04-04T06:47:40.144Z,93.70
2019-04-04T06:48:45.550Z,93.70
2019-04-04T06:49:50.751Z,93.70
2019-04-04T06:50:55.881Z,93.60
2019-04-04T06:52:00.886Z,93.50
2019-04-04T06:53:05.925Z,93.40
2019-04-04T06:54:11.418Z,93.30
2019-04-04T06:55:16.530Z,93.30
2019-04-04T06:56:21.646Z,93.20
2019-04-04T06:57:26.678Z,93.20
2019-04-04T06:58:31.825Z,93.20
2019-04-04T06:59:37.847Z,93.20
2019-04-04T07:00:43.245Z,93.10
2019-04-04T07:01:50.010Z,93.20
2019-04-04T07:02:56.202Z,93.10
2019-04-04T07:04:01.508Z,93.00
2019-04-04T07:05:06.986Z,93.10
2019-04-04T07:06:12.296Z,92.90
2019-04-04T07:07:17.403Z,92.80
2019-04-04T07:08:22.696Z,92.70
2019-04-04T07:09:28.002Z,92.70
2019-04-04T07:10:33.240Z,92.70
2019-04-04T07:11:38.344Z,92.60
2019-04-04T07:12:43.451Z,92.60
2019-04-04T07:13:48.558Z,92.60
2019-04-04T07:14:53.752Z,92.50
2019-04-04T07:16:06.813Z,92.40
2019-04-04T07:17:08.415Z,92.50
2019-04-04T07:18:12.994Z,92.50
2019-04-04T07:19:18.078Z,92.50
2019-04-04T07:20:23.201Z,92.60
2019-04-04T07:21:28.344Z,92.60
2019-04-04T07:22:33.419Z,92.60
2019-04-04T07:23:41.621Z,92.60
2019-04-04T07:24:45.242Z,92.60
2019-04-04T07:25:53.245Z,92.50
2019-04-04T07:26:57.038Z,92.40
2019-04-04T07:28:02.063Z,92.50
2019-04-04T07:29:07.159Z,92.40
2019-04-04T07:30:15.389Z,92.50
2019-04-04T07:31:20.169Z,92.50
2019-04-04T07:32:25.231Z,92.40
2019-04-04T07:33:30.365Z,92.60
2019-04-04T07:34:35.439Z,92.30
2019-04-04T07:35:40.480Z,92.20
2019-04-04T07:36:45.497Z,92.20
2019-04-04T07:37:53.448Z,92.30
2019-04-04T07:38:58.168Z,92.30
2019-04-04T07:40:04.651Z,92.30
2019-04-04T07:41:10.872Z,92.30
2019-04-04T07:42:16.331Z,92.20
2019-04-04T07:43:21.439Z,92.10
2019-04-04T07:44:26.492Z,92.20
2019-04-04T07:45:31.587Z,92.20
2019-04-04T07:46:36.775Z,92.20
2019-04-04T07:47:41.972Z,92.00
2019-04-04T07:48:47.178Z,91.80
2019-04-04T07:49:53.181Z,91.80
2019-04-04T07:50:59.263Z,91.70
2019-04-04T07:52:04.409Z,91.80
2019-04-04T07:53:09.605Z,91.80
2019-04-04T07:54:14.954Z,91.80
2019-04-04T07:55:20.453Z,91.80
2019-04-04T07:56:25.596Z,91.70
2019-04-04T07:57:30.697Z,91.70
2019-04-04T07:58:35.819Z,91.60
2019-04-04T07:59:40.829Z,91.60
2019-04-04T08:00:46.103Z,91.40
2019-04-04T08:01:51.706Z,91.30
2019-04-04T08:02:57.029Z,91.30
2019-04-04T08:04:02.157Z,91.30
2019-04-04T08:05:07.676Z,91.40
2019-04-04T08:06:12.833Z,91.30
2019-04-04T08:07:18.129Z,91.20
2019-04-04T08:08:23.375Z,91.20
2019-04-04T08:09:28.487Z,91.10
2019-04-04T08:10:33.617Z,91.20
2019-04-04T08:11:38.699Z,91.10
2019-04-04T08:12:43.912Z,91.10
2019-04-04T08:13:49.203Z,91.10
2019-04-04T08:14:54.358Z,91.10
2019-04-04T08:15:59.473Z,91.10
2019-04-04T08:17:04.529Z,91.00
2019-04-04T08:18:09.694Z,90.80
2019-04-04T08:19:14.903Z,90.90
2019-04-04T08:20:20.357Z,90.90
2019-04-04T08:21:25.565Z,90.90
2019-04-04T08:22:30.684Z,90.80
2019-04-04T08:23:35.739Z,90.80
2019-04-04T08:24:40.849Z,90.90
2019-04-04T08:25:46.031Z,90.90
2019-04-04T08:26:51.759Z,91.00
2019-04-04T08:27:57.243Z,91.00
2019-04-04T08:29:04.295Z,90.80
2019-04-04T08:30:09.874Z,90.70
2019-04-04T08:31:15.547Z,90.70
2019-04-04T08:32:20.565Z,90.70
2019-04-04T08:33:25.765Z,90.60
2019-04-04T08:34:31.132Z,90.70
2019-04-04T08:35:37.427Z,90.80
2019-04-04T08:36:42.668Z,90.60
2019-04-04T08:37:47.768Z,90.50
2019-04-04T08:38:53.007Z,90.50
2019-04-04T08:39:58.121Z,90.30
2019-04-04T08:41:03.237Z,90.30
2019-04-04T08:42:08.313Z,90.30
2019-04-04T08:43:13.438Z,90.40
2019-04-04T08:44:18.551Z,90.20
2019-04-04T08:45:23.668Z,90.10
2019-04-04T08:46:28.861Z,90.00
2019-04-04T08:47:33.956Z,89.90
2019-04-04T08:48:39.312Z,90.00
2019-04-04T08:49:44.461Z,89.70
2019-04-04T08:50:49.562Z,90.00
2019-04-04T08:51:54.608Z,90.10
2019-04-04T08:52:59.691Z,90.20
2019-04-04T08:54:05.098Z,90.00
2019-04-04T08:55:10.311Z,89.90
2019-04-04T08:56:15.452Z,89.80
2019-04-04T08:57:20.517Z,90.00
2019-04-04T08:58:25.923Z,89.90
2019-04-04T08:59:30.948Z,89.80
2019-04-04T09:00:36.160Z,89.80
2019-04-04T09:01:41.394Z,90.00
2019-04-04T09:02:46.484Z,90.10
2019-04-04T09:03:51.604Z,90.00
2019-04-04T09:04:56.809Z,89.80
2019-04-04T09:06:01.929Z,90.00
2019-04-04T09:07:07.101Z,89.80
2019-04-04T09:08:12.112Z,89.60
2019-04-04T09:09:17.229Z,89.90
2019-04-04T09:10:22.372Z,89.80
2019-04-04T09:11:27.500Z,90.00
2019-04-04T09:12:32.553Z,90.10
2019-04-04T09:13:37.714Z,90.10
2019-04-04T09:14:42.754Z,89.80
2019-04-04T09:15:47.933Z,90.00
2019-04-04T09:16:53.464Z,90.10
2019-04-04T09:17:58.655Z,90.20
2019-04-04T09:19:03.757Z,90.30
2019-04-04T09:20:09.905Z,90.50
2019-04-04T09:21:15.125Z,90.20
2019-04-04T09:22:20.202Z,90.10
2019-04-04T09:23:26.405Z,90.10
2019-04-04T09:24:31.677Z,90.10
2019-04-04T09:25:36.813Z,90.20
2019-04-04T09:26:41.935Z,90.20
2019-04-04T09:27:46.980Z,90.40
2019-04-04T09:28:52.524Z,90.30
2019-04-04T09:29:58.652Z,90.30
2019-04-04T09:31:03.809Z,90.20
2019-04-04T09:32:09.038Z,90.30
2019-04-04T09:33:15.179Z,90.10
2019-04-04T09:34:20.297Z,90.00
2019-04-04T09:35:25.514Z,90.00
2019-04-04T09:36:30.687Z,90.00
2019-04-04T09:37:35.900Z,90.10
2019-04-04T09:38:41.049Z,90.00
2019-04-04T09:39:46.153Z,90.00
2019-04-04T09:40:51.240Z,90.00
2019-04-04T09:41:56.356Z,90.00
2019-04-04T09:43:01.791Z,89.70
2019-04-04T09:44:06.977Z,90.00
2019-04-04T09:45:12.607Z,90.00
2019-04-04T09:46:17.829Z,90.00
2019-04-04T09:47:22.940Z,90.00
2019-04-04T09:48:28.089Z,89.90
2019-04-04T09:49:33.196Z,90.00
2019-04-04T09:50:38.240Z,90.10
2019-04-04T09:51:43.433Z,90.10
2019-04-04T09:52:48.461Z,90.20
2019-04-04T09:53:54.119Z,90.00
2019-04-04T09:54:59.461Z,90.10
2019-04-04T09:56:05.620Z,90.20
2019-04-04T09:57:11.857Z,90.10
2019-04-04T09:58:17.012Z,90.20
2019-04-04T09:59:22.232Z,90.30
2019-04-04T10:00:27.476Z,90.20
2019-04-04T10:01:32.656Z,90.20
2019-04-04T10:02:37.816Z,90.20
2019-04-04T10:03:42.872Z,90.20
2019-04-04T10:04:48.042Z,90.10
2019-04-04T10:05:53.143Z,90.20
2019-04-04T10:06:58.285Z,90.40
2019-04-04T10:08:04.934Z,90.40
2019-04-04T10:09:15.937Z,90.50
2019-04-04T10:10:17.669Z,90.60
2019-04-04T10:11:22.788Z,90.80
2019-04-04T10:12:29.597Z,90.80
2019-04-04T10:13:34.771Z,90.80
2019-04-04T10:14:39.904Z,90.70
2019-04-04T10:15:45.114Z,90.70
2019-04-04T10:16:50.237Z,90.80
2019-04-04T10:17:55.326Z,91.10
2019-04-04T10:19:00.414Z,91.30
2019-04-04T10:20:06.116Z,91.50
2019-04-04T10:21:12.482Z,91.50
2019-04-04T10:22:17.897Z,91.50
2019-04-04T10:23:22.929Z,91.50
2019-04-04T10:24:28.037Z,91.40
2019-04-04T10:25:33.205Z,91.50
2019-04-04T10:26:38.356Z,91.60
2019-04-04T10:27:43.537Z,91.50
2019-04-04T10:28:48.663Z,91.60
2019-04-04T10:29:53.689Z,91.60
2019-04-04T10:30:58.839Z,91.60
2019-04-04T10:32:04.142Z,91.80
2019-04-04T10:33:09.376Z,92.00
2019-04-04T10:34:14.401Z,92.00
2019-04-04T10:35:19.509Z,91.90
2019-04-04T10:36:24.788Z,91.90
2019-04-04T10:37:30.009Z,91.90
2019-04-04T10:38:35.178Z,92.20
2019-04-04T10:39:40.342Z,92.30
2019-04-04T10:40:45.468Z,92.50
2019-04-04T10:41:50.584Z,92.40
2019-04-04T10:42:55.760Z,92.60
2019-04-04T10:44:00.904Z,92.90
2019-04-04T10:45:07.552Z,93.00
2019-04-04T10:46:12.643Z,93.20
2019-04-04T10:47:17.848Z,92.90
2019-04-04T10:48:23.017Z,92.90
2019-04-04T10:49:28.042Z,92.50
2019-04-04T10:50:33.185Z,92.80
2019-04-04T10:51:38.383Z,92.70
2019-04-04T10:52:43.566Z,92.90
2019-04-04T10:53:48.673Z,92.80
2019-04-04T10:54:53.718Z,92.80
2019-04-04T10:55:58.765Z,92.80
2019-04-04T10:57:03.900Z,92.90
2019-04-04T10:58:08.976Z,93.10
2019-04-04T10:59:14.081Z,93.00
2019-04-04T11:00:19.439Z,93.30
2019-04-04T11:01:24.462Z,93.40
2019-04-04T11:02:29.526Z,93.40
2019-04-04T11:03:34.714Z,93.30
2019-04-04T11:04:39.812Z,93.00
2019-04-04T11:05:46.112Z,93.00
2019-04-04T11:06:51.156Z,93.10
2019-04-04T11:07:56.915Z,93.30
2019-04-04T11:09:02.200Z,93.00
2019-04-04T11:10:09.142Z,92.70
2019-04-04T11:11:14.301Z,92.90
2019-04-04T11:12:19.410Z,93.00
2019-04-04T11:13:33.257Z,93.10
2019-04-04T11:14:31.175Z,93.00
2019-04-04T11:15:36.190Z,92.90
2019-04-04T11:16:41.339Z,92.90
2019-04-04T11:17:46.343Z,93.00
2019-04-04T11:18:51.371Z,93.10
2019-04-04T11:19:56.465Z,93.10
2019-04-04T11:21:01.602Z,92.70
2019-04-04T11:22:06.705Z,92.80
2019-04-04T11:23:11.860Z,92.80
2019-04-04T11:24:17.101Z,92.80
2019-04-04T11:25:22.216Z,92.60
2019-04-04T11:26:27.371Z,92.50
2019-04-04T11:27:32.470Z,92.50
2019-04-04T11:28:37.580Z,92.30
2019-04-04T11:29:42.596Z,92.10
2019-04-04T11:30:47.696Z,92.00
2019-04-04T11:31:52.720Z,91.80
2019-04-04T11:32:57.834Z,92.00
2019-04-04T11:34:02.967Z,92.00
2019-04-04T11:35:08.207Z,92.00
2019-04-04T11:36:13.301Z,92.00
2019-04-04T11:37:18.449Z,91.70
2019-04-04T11:38:23.530Z,91.80
2019-04-04T11:39:28.737Z,91.70
2019-04-04T11:40:34.260Z,91.20
2019-04-04T11:41:39.264Z,91.10
2019-04-04T11:42:45.392Z,91.30
2019-04-04T11:43:50.482Z,91.30
2019-04-04T11:44:55.558Z,91.30
2019-04-04T11:46:00.696Z,91.20
2019-04-04T11:47:05.756Z,90.90
2019-04-04T11:48:10.809Z,91.00
2019-04-04T11:49:15.894Z,91.30
2019-04-04T11:50:21.161Z,91.20
2019-04-04T11:51:26.460Z,91.10
2019-04-04T11:52:31.583Z,91.20
2019-04-04T11:53:36.604Z,91.30
2019-04-04T11:55:01.113Z,91.40
2019-04-04T11:56:06.372Z,91.40
2019-04-04T11:57:11.512Z,91.30
2019-04-04T11:58:16.649Z,91.40
2019-04-04T11:59:21.669Z,91.40
2019-04-04T12:00:30.664Z,91.30
2019-04-04T12:01:37.308Z,91.30
2019-04-04T12:02:42.401Z,91.30
2019-04-04T12:03:47.708Z,91.40
2019-04-04T12:04:53.009Z,91.40
2019-04-04T12:05:58.126Z,90.90
2019-04-04T12:07:04.293Z,91.00
2019-04-04T12:08:09.391Z,91.10
2019-04-04T12:09:14.528Z,91.10
2019-04-04T12:10:19.813Z,91.10
2019-04-04T12:11:24.939Z,91.00
2019-04-04T12:12:30.140Z,91.00
2019-04-04T12:13:35.243Z,91.10
2019-04-04T12:14:42.736Z,91.30
2019-04-04T12:15:47.768Z,91.50
2019-04-04T12:16:52.788Z,91.30
2019-04-04T12:17:57.805Z,91.40
2019-04-04T12:19:02.919Z,91.30
2019-04-04T12:20:08.262Z,91.40
2019-04-04T12:21:13.360Z,91.40
2019-04-04T12:22:18.492Z,91.50
2019-04-04T12:23:23.634Z,91.40
2019-04-04T12:24:28.729Z,91.40
2019-04-04T12:25:33.912Z,91.50
2019-04-04T12:26:39.944Z,91.30
2019-04-04T12:27:45.356Z,91.40
2019-04-04T12:28:50.755Z,91.50
2019-04-04T12:29:55.877Z,91.60
2019-04-04T12:31:01.025Z,91.20
2019-04-04T12:32:06.103Z,91.10
2019-04-04T12:33:11.216Z,91.10
2019-04-04T12:34:16.444Z,91.00
2019-04-04T12:35:21.713Z,90.80
2019-04-04T12:36:27.090Z,90.70
2019-04-04T12:37:32.492Z,90.80
2019-04-04T12:38:37.639Z,90.90
2019-04-04T12:39:44.421Z,90.90
2019-04-04T12:40:49.811Z,90.90
2019-04-04T12:41:54.897Z,90.60
2019-04-04T12:43:00.180Z,90.40
2019-04-04T12:44:05.891Z,90.40
2019-04-04T12:45:11.187Z,90.60
2019-04-04T12:46:16.249Z,90.50
2019-04-04T12:47:21.464Z,90.40
2019-04-04T12:48:26.585Z,90.40
2019-04-04T12:49:31.652Z,90.50
2019-04-04T12:50:36.702Z,90.40
2019-04-04T12:51:41.868Z,90.60
2019-04-04T12:52:46.969Z,90.70
2019-04-04T12:53:52.072Z,90.80
2019-04-04T12:54:58.296Z,90.60
2019-04-04T12:56:03.444Z,90.40
2019-04-04T12:57:08.820Z,90.60
2019-04-04T12:58:13.974Z,90.50
2019-04-04T12:59:19.078Z,90.60
2019-04-04T13:00:24.173Z,90.40
2019-04-04T13:01:29.349Z,90.50
2019-04-04T13:02:34.493Z,90.40
2019-04-04T13:03:39.708Z,90.50
2019-04-04T13:04:45.120Z,90.50
2019-04-04T13:05:50.375Z,90.50
2019-04-04T13:06:55.497Z,90.60
2019-04-04T13:08:00.588Z,90.60
2019-04-04T13:09:08.347Z,90.60
2019-04-04T13:10:14.119Z,90.60
2019-04-04T13:11:19.217Z,90.60
2019-04-04T13:12:24.351Z,90.60
2019-04-04T13:13:29.441Z,90.70
2019-04-04T13:14:34.584Z,90.80
2019-04-04T13:15:39.627Z,90.80
2019-04-04T13:16:44.739Z,90.80
2019-04-04T13:17:49.878Z,90.80
2019-04-04T13:18:56.017Z,90.70
2019-04-04T13:20:01.082Z,90.80
2019-04-04T13:21:07.031Z,90.80
2019-04-04T13:22:12.228Z,90.80
2019-04-04T13:23:17.355Z,90.60
2019-04-04T13:24:22.471Z,90.60
2019-04-04T13:25:27.555Z,90.60
2019-04-04T13:26:32.593Z,90.50
2019-04-04T13:27:37.721Z,90.60
2019-04-04T13:28:42.916Z,90.70
2019-04-04T13:29:48.074Z,90.90
2019-04-04T13:30:53.535Z,90.80
2019-04-04T13:31:58.625Z,90.80
2019-04-04T13:33:03.792Z,91.00
2019-04-04T13:34:08.902Z,91.00
2019-04-04T13:35:13.949Z,91.00
2019-04-04T13:36:19.139Z,91.10
2019-04-04T13:37:24.275Z,91.20
2019-04-04T13:38:29.426Z,91.20
2019-04-04T13:39:34.536Z,91.20
2019-04-04T13:40:45.392Z,91.20
2019-04-04T13:41:46.309Z,91.30
2019-04-04T13:42:53.123Z,91.30
2019-04-04T13:43:58.200Z,91.50
2019-04-04T13:45:03.247Z,91.30
2019-04-04T13:46:10.921Z,91.30
2019-04-04T13:47:15.409Z,91.40
2019-04-04T13:48:21.520Z,91.40
2019-04-04T13:49:26.633Z,91.30
2019-04-04T13:50:31.718Z,91.30
2019-04-04T13:51:36.868Z,91.40
2019-04-04T13:52:42.061Z,91.30
2019-04-04T13:53:47.112Z,91.10
2019-04-04T13:54:55.672Z,91.20
2019-04-04T13:55:59.322Z,91.30
2019-04-04T13:57:04.614Z,91.30
2019-04-04T13:58:09.834Z,91.10
2019-04-04T13:59:14.879Z,90.90
2019-04-04T14:00:20.192Z,90.90
2019-04-04T14:01:28.701Z,90.90
2019-04-04T14:02:33.795Z,91.00
2019-04-04T14:03:38.973Z,91.00